createdAt,value
2017-06-02T00:00:01.179Z,19.42
2017-06-02T00:00:05.849Z,19.39
2017-06-02T00:00:10.170Z,19.35
2017-06-02T00:00:14.368Z,19.38
2017-06-02T00:00:18.677Z,19.39
2017-06-02T00:00:22.874Z,19.28
2017-06-02T00:00:27.249Z,19.38
2017-06-02T00:00:31.572Z,19.34
2017-06-02T00:00:35.998Z,19.38
2017-06-02T00:00:40.426Z,19.3
2017-06-02T00:00:44.858Z,19.31
2017-06-02T00:00:49.290Z,19.38
2017-06-02T00:00:53.748Z,19.3
2017-06-02T00:00:58.110Z,19.38
2017-06-02T00:01:02.549Z,19.32
2017-06-02T00:01:06.880Z,19.43
2017-06-02T00:01:11.189Z,19.38
2017-06-02T00:01:15.500Z,19.32
2017-06-02T00:01:19.690Z,19.34
2017-06-02T00:01:23.997Z,19.34
2017-06-02T00:01:28.309Z,19.32
2017-06-02T00:01:32.520Z,19.32
2017-06-02T00:01:36.999Z,19.32
2017-06-02T00:01:41.312Z,19.31
2017-06-02T00:01:45.738Z,19.42
2017-06-02T00:01:50.171Z,19.34
2017-06-02T00:01:54.490Z,19.35
2017-06-02T00:01:58.931Z,19.32
2017-06-02T00:02:03.495Z,19.35
2017-06-02T00:02:07.830Z,19.34
2017-06-02T00:02:11.909Z,19.31
2017-06-02T00:02:16.219Z,19.27
2017-06-02T00:02:20.526Z,19.31
2017-06-02T00:02:24.723Z,19.4
2017-06-02T00:02:29.030Z,19.31
2017-06-02T00:02:33.360Z,19.31
2017-06-02T00:02:37.852Z,19.31
2017-06-02T00:02:42.296Z,19.38
2017-06-02T00:02:46.739Z,19.31
2017-06-02T00:02:51.044Z,19.34
2017-06-02T00:02:55.352Z,19.32
2017-06-02T00:02:59.660Z,19.3
2017-06-02T00:03:04.080Z,19.28
2017-06-02T00:03:08.397Z,19.34
2017-06-02T00:03:12.712Z,19.39
2017-06-02T00:03:17.050Z,19.32
2017-06-02T00:03:21.243Z,19.35
2017-06-02T00:03:25.315Z,19.38
2017-06-02T00:03:29.740Z,19.35
2017-06-02T00:03:34.166Z,19.34
2017-06-02T00:03:38.592Z,19.27
2017-06-02T00:03:43.019Z,19.34
2017-06-02T00:03:47.332Z,19.35
2017-06-02T00:03:51.756Z,19.35
2017-06-02T00:03:55.944Z,19.32
2017-06-02T00:04:00.136Z,19.38
2017-06-02T00:04:04.566Z,19.34
2017-06-02T00:04:08.637Z,19.34
2017-06-02T00:04:12.953Z,19.31
2017-06-02T00:04:17.268Z,19.35
2017-06-02T00:04:21.633Z,19.31
2017-06-02T00:04:25.827Z,19.28
2017-06-02T00:04:30.134Z,19.27
2017-06-02T00:04:34.437Z,19.23
2017-06-02T00:04:38.863Z,19.25
2017-06-02T00:04:43.285Z,19.35
2017-06-02T00:04:47.713Z,19.31
2017-06-02T00:04:52.076Z,19.3
2017-06-02T00:04:56.275Z,19.31
2017-06-02T00:05:00.579Z,19.31
2017-06-02T00:05:04.889Z,19.35
2017-06-02T00:05:09.209Z,19.25
2017-06-02T00:05:13.401Z,19.32
2017-06-02T00:05:17.711Z,19.31
2017-06-02T00:05:22.133Z,19.25
2017-06-02T00:05:26.213Z,19.25
2017-06-02T00:05:30.644Z,19.3
2017-06-02T00:05:35.012Z,19.31
2017-06-02T00:05:39.470Z,19.35
2017-06-02T00:05:43.898Z,19.27
2017-06-02T00:05:48.326Z,19.38
2017-06-02T00:05:52.750Z,19.23
2017-06-02T00:05:57.065Z,19.27
2017-06-02T00:06:01.550Z,19.24
2017-06-02T00:06:05.634Z,19.23
2017-06-02T00:06:09.723Z,19.25
2017-06-02T00:06:13.925Z,19.25
2017-06-02T00:06:18.114Z,19.25
2017-06-02T00:06:22.545Z,19.27
2017-06-02T00:06:26.738Z,19.23
2017-06-02T00:06:31.162Z,19.28
2017-06-02T00:06:35.585Z,19.28
2017-06-02T00:06:40.023Z,19.28
2017-06-02T00:06:44.222Z,19.27
2017-06-02T00:06:48.647Z,19.21
2017-06-02T00:06:53.075Z,19.28
2017-06-02T00:06:57.504Z,19.24
2017-06-02T00:07:01.814Z,19.24
2017-06-02T00:07:06.004Z,19.28
2017-06-02T00:07:10.079Z,19.23
2017-06-02T00:07:14.514Z,19.3
2017-06-02T00:07:18.822Z,19.27
2017-06-02T00:07:23.135Z,19.28
2017-06-02T00:07:27.563Z,19.25
2017-06-02T00:07:31.990Z,19.24
2017-06-02T00:07:36.179Z,19.24
2017-06-02T00:07:40.605Z,19.24
2017-06-02T00:07:45.034Z,19.23
2017-06-02T00:07:49.357Z,19.24
2017-06-02T00:07:53.551Z,19.3
2017-06-02T00:07:57.854Z,19.17
2017-06-02T00:08:02.380Z,19.21
2017-06-02T00:08:06.905Z,19.27
2017-06-02T00:08:10.981Z,19.31
2017-06-02T00:08:15.293Z,19.25
2017-06-02T00:08:19.609Z,19.24
2017-06-02T00:08:23.687Z,19.21
2017-06-02T00:08:27.762Z,19.23
2017-06-02T00:08:31.956Z,19.21
2017-06-02T00:08:36.400Z,19.25
2017-06-02T00:08:40.826Z,19.24
2017-06-02T00:08:45.012Z,19.27
2017-06-02T00:08:49.324Z,19.25
2017-06-02T00:08:53.525Z,19.28
2017-06-02T00:08:57.954Z,19.17
2017-06-02T00:09:02.465Z,19.21
2017-06-02T00:09:06.892Z,19.24
2017-06-02T00:09:11.078Z,19.24
2017-06-02T00:09:15.385Z,19.17
2017-06-02T00:09:19.689Z,19.09
2017-06-02T00:09:23.999Z,19.17
2017-06-02T00:09:28.315Z,19.15
2017-06-02T00:09:32.627Z,19.2
2017-06-02T00:09:37.082Z,19.32
2017-06-02T00:09:41.514Z,19.24
2017-06-02T00:09:45.939Z,19.15
2017-06-02T00:09:50.244Z,19.15
2017-06-02T00:09:54.547Z,19.2
2017-06-02T00:09:58.856Z,19.2
2017-06-02T00:10:03.437Z,19.16
2017-06-02T00:10:07.511Z,19.13
2017-06-02T00:10:11.464Z,19.12
2017-06-02T00:10:15.886Z,19.17
2017-06-02T00:10:20.312Z,19.16
2017-06-02T00:10:24.745Z,19.17
2017-06-02T00:10:29.060Z,19.16
2017-06-02T00:10:33.530Z,19.17
2017-06-02T00:10:37.969Z,19.24
2017-06-02T00:10:42.409Z,19.15
2017-06-02T00:10:46.714Z,19.24
2017-06-02T00:10:51.141Z,19.12
2017-06-02T00:10:55.563Z,19.17
2017-06-02T00:10:59.871Z,19.25
2017-06-02T00:11:04.188Z,19.15
2017-06-02T00:11:08.387Z,19.2
2017-06-02T00:11:12.578Z,19.15
2017-06-02T00:11:16.890Z,19.16
2017-06-02T00:11:21.076Z,19.12
2017-06-02T00:11:25.269Z,19.17
2017-06-02T00:11:29.578Z,19.2
2017-06-02T00:11:33.999Z,19.13
2017-06-02T00:11:38.319Z,19.15
2017-06-02T00:11:42.456Z,19.23
2017-06-02T00:11:46.881Z,19.23
2017-06-02T00:11:51.190Z,19.2
2017-06-02T00:11:55.498Z,19.21
2017-06-02T00:11:59.800Z,19.15
2017-06-02T00:12:04.113Z,19.24
2017-06-02T00:12:08.418Z,19.17
2017-06-02T00:12:12.612Z,19.15
2017-06-02T00:12:16.810Z,19.17
2017-06-02T00:12:21.018Z,19.2
2017-06-02T00:12:25.214Z,19.21
2017-06-02T00:12:29.517Z,19.16
2017-06-02T00:12:33.828Z,19.12
2017-06-02T00:12:38.016Z,19.16
2017-06-02T00:12:42.089Z,19.17
2017-06-02T00:12:46.399Z,19.15
2017-06-02T00:12:50.760Z,19.12
2017-06-02T00:12:54.955Z,19.2
2017-06-02T00:12:59.260Z,19.15
2017-06-02T00:13:03.687Z,19.17
2017-06-02T00:13:07.881Z,19.21
2017-06-02T00:13:12.074Z,19.1
2017-06-02T00:13:16.497Z,19.24
2017-06-02T00:13:20.932Z,19.09
2017-06-02T00:13:25.008Z,19.2
2017-06-02T00:13:29.328Z,19.09
2017-06-02T00:13:33.515Z,19.16
2017-06-02T00:13:37.823Z,19.2
2017-06-02T00:13:42.128Z,19.16
2017-06-02T00:13:46.431Z,19.16
2017-06-02T00:13:50.876Z,19.2
2017-06-02T00:13:55.306Z,19.2
2017-06-02T00:13:59.652Z,19.16
2017-06-02T00:14:04.134Z,19.15
2017-06-02T00:14:08.335Z,19.09
2017-06-02T00:14:12.528Z,19.21
2017-06-02T00:14:16.838Z,19.1
2017-06-02T00:14:21.027Z,19.12
2017-06-02T00:14:25.450Z,19.16
2017-06-02T00:14:29.879Z,19.13
2017-06-02T00:14:34.128Z,19.2
2017-06-02T00:14:38.561Z,19.13
2017-06-02T00:14:42.985Z,19.13
2017-06-02T00:14:47.407Z,19.15
2017-06-02T00:14:51.831Z,19.09
2017-06-02T00:14:56.254Z,19.21
2017-06-02T00:15:00.682Z,19.13
2017-06-02T00:15:04.915Z,19.17
2017-06-02T00:15:09.107Z,19.09
2017-06-02T00:15:13.299Z,19.12
2017-06-02T00:15:17.612Z,19.15
2017-06-02T00:15:21.803Z,19.07
2017-06-02T00:15:25.989Z,19.15
2017-06-02T00:15:30.415Z,19.16
2017-06-02T00:15:34.607Z,19.12
2017-06-02T00:15:38.926Z,19.12
2017-06-02T00:15:43.241Z,19.23
2017-06-02T00:15:47.671Z,19.17
2017-06-02T00:15:52.098Z,19.07
2017-06-02T00:15:56.523Z,19.17
2017-06-02T00:16:00.949Z,19.12
2017-06-02T00:16:05.563Z,19.17
2017-06-02T00:16:09.656Z,19.12
2017-06-02T00:16:13.852Z,19.1
2017-06-02T00:16:18.280Z,19.21
2017-06-02T00:16:22.594Z,19.2
2017-06-02T00:16:26.429Z,19.07
2017-06-02T00:16:30.733Z,19.17
2017-06-02T00:16:34.930Z,19.24
2017-06-02T00:16:39.127Z,19.1
2017-06-02T00:16:43.325Z,19.12
2017-06-02T00:16:47.757Z,19.16
2017-06-02T00:16:52.076Z,19.12
2017-06-02T00:16:56.504Z,19.2
2017-06-02T00:17:00.814Z,19.16
2017-06-02T00:17:05.476Z,19.16
2017-06-02T00:17:10.017Z,19.21
2017-06-02T00:17:15.399Z,19.1
2017-06-02T00:17:20.135Z,19.21
2017-06-02T00:17:24.777Z,19.1
2017-06-02T00:17:29.244Z,19.16
2017-06-02T00:17:34.842Z,19.15
2017-06-02T00:17:39.356Z,19.17
2017-06-02T00:17:43.908Z,19.17
2017-06-02T00:17:49.186Z,19.17
2017-06-02T00:17:54.189Z,19.16
2017-06-02T00:17:59.352Z,19.13
2017-06-02T00:18:04.323Z,19.16
2017-06-02T00:18:09.788Z,19.12
2017-06-02T00:18:15.066Z,19.13
2017-06-02T00:18:19.670Z,19.15
2017-06-02T00:18:24.104Z,19.17
2017-06-02T00:18:28.428Z,19.13
2017-06-02T00:18:32.634Z,19.16
2017-06-02T00:18:37.057Z,19.15
2017-06-02T00:18:41.490Z,19.15
2017-06-02T00:18:45.801Z,19.12
2017-06-02T00:18:50.228Z,19.15
2017-06-02T00:18:54.677Z,19.15
2017-06-02T00:18:59.114Z,19.12
2017-06-02T00:19:03.796Z,19.12
2017-06-02T00:19:08.137Z,19.1
2017-06-02T00:19:12.452Z,19.13
2017-06-02T00:19:16.763Z,19.1
2017-06-02T00:19:20.961Z,19.16
2017-06-02T00:19:24.925Z,19.17
2017-06-02T00:19:29.350Z,19.15
2017-06-02T00:19:33.543Z,19.12
2017-06-02T00:19:37.862Z,19.16
2017-06-02T00:19:42.285Z,19.15
2017-06-02T00:19:46.591Z,19.13
2017-06-02T00:19:50.900Z,19.12
2017-06-02T00:19:55.334Z,19.13
2017-06-02T00:19:59.521Z,19.12
2017-06-02T00:20:03.928Z,19.1
2017-06-02T00:20:08.363Z,19.16
2017-06-02T00:20:12.680Z,19.1
2017-06-02T00:20:16.879Z,19.09
2017-06-02T00:20:21.070Z,19.02
2017-06-02T00:20:25.142Z,19.1
2017-06-02T00:20:29.537Z,19.17
2017-06-02T00:20:33.987Z,19.12
2017-06-02T00:20:38.193Z,19.09
2017-06-02T00:20:42.623Z,19.1
2017-06-02T00:20:47.048Z,19.09
2017-06-02T00:20:51.352Z,19.09
2017-06-02T00:20:55.545Z,19.16
2017-06-02T00:20:59.863Z,19.16
2017-06-02T00:21:04.294Z,19.1
2017-06-02T00:21:08.664Z,19.02
2017-06-02T00:21:12.888Z,19.1
2017-06-02T00:21:17.087Z,19.05
2017-06-02T00:21:21.282Z,19.07
2017-06-02T00:21:25.354Z,19.09
2017-06-02T00:21:29.775Z,19.07
2017-06-02T00:21:34.207Z,19.1
2017-06-02T00:21:38.631Z,19.09
2017-06-02T00:21:43.062Z,19.09
2017-06-02T00:21:47.492Z,19.06
2017-06-02T00:21:51.802Z,19.02
2017-06-02T00:21:56.108Z,19.09
2017-06-02T00:22:00.298Z,19.09
2017-06-02T00:22:04.716Z,19.02
2017-06-02T00:22:08.907Z,19.13
2017-06-02T00:22:13.217Z,19.13
2017-06-02T00:22:17.624Z,19.17
2017-06-02T00:22:21.943Z,19.09
2017-06-02T00:22:26.134Z,19.09
2017-06-02T00:22:30.447Z,19.07
2017-06-02T00:22:34.885Z,19.12
2017-06-02T00:22:38.967Z,19.1
2017-06-02T00:22:43.394Z,19.15
2017-06-02T00:22:47.890Z,19.09
2017-06-02T00:22:52.088Z,19.09
2017-06-02T00:22:56.532Z,19.07
2017-06-02T00:23:00.841Z,19.12
2017-06-02T00:23:05.270Z,19.15
2017-06-02T00:23:09.349Z,19.01
2017-06-02T00:23:13.661Z,19.12
2017-06-02T00:23:17.969Z,19.06
2017-06-02T00:23:22.171Z,19.12
2017-06-02T00:23:26.193Z,19.1
2017-06-02T00:23:31.030Z,19.07
2017-06-02T00:23:35.454Z,19.07
2017-06-02T00:23:39.771Z,19.02
2017-06-02T00:23:44.080Z,18.94
2017-06-02T00:23:48.507Z,19.07
2017-06-02T00:23:52.823Z,18.99
2017-06-02T00:23:57.254Z,19.09
2017-06-02T00:24:01.739Z,18.99
2017-06-02T00:24:06.080Z,19.1
2017-06-02T00:24:10.045Z,19.01
2017-06-02T00:24:14.466Z,19.05
2017-06-02T00:24:18.777Z,19.05
2017-06-02T00:24:22.976Z,19.1
2017-06-02T00:24:26.934Z,19.05
2017-06-02T00:24:31.129Z,19.05
2017-06-02T00:24:35.446Z,19.02
2017-06-02T00:24:39.400Z,19.02
2017-06-02T00:24:43.708Z,19.02
2017-06-02T00:24:48.133Z,18.96
2017-06-02T00:24:52.444Z,18.96
2017-06-02T00:24:56.870Z,19.02
2017-06-02T00:25:01.305Z,19.1
2017-06-02T00:25:05.503Z,19.06
2017-06-02T00:25:09.826Z,19.05
2017-06-02T00:25:14.020Z,19.05
2017-06-02T00:25:18.329Z,19.02
2017-06-02T00:25:22.642Z,19.02
2017-06-02T00:25:26.952Z,19.05
2017-06-02T00:25:31.256Z,19.1
2017-06-02T00:25:35.459Z,19.02
2017-06-02T00:25:39.798Z,18.97
2017-06-02T00:25:44.120Z,19.01
2017-06-02T00:25:48.546Z,19.07
2017-06-02T00:25:52.852Z,18.96
2017-06-02T00:25:57.162Z,19.02
2017-06-02T00:26:01.582Z,19.02
2017-06-02T00:26:05.942Z,19.06
2017-06-02T00:26:10.268Z,19.02
2017-06-02T00:26:14.352Z,18.97
2017-06-02T00:26:18.786Z,19.06
2017-06-02T00:26:22.979Z,18.99
2017-06-02T00:26:27.293Z,19.02
2017-06-02T00:26:31.493Z,19.05
2017-06-02T00:26:35.914Z,19.07
2017-06-02T00:26:40.222Z,19.07
2017-06-02T00:26:44.654Z,19.05
2017-06-02T00:26:48.973Z,19.01
2017-06-02T00:26:53.405Z,19.05
2017-06-02T00:26:57.833Z,19.06
2017-06-02T00:27:02.042Z,18.94
2017-06-02T00:27:06.236Z,18.99
2017-06-02T00:27:10.439Z,18.96
2017-06-02T00:27:14.634Z,18.97
2017-06-02T00:27:18.948Z,18.99
2017-06-02T00:27:23.262Z,18.94
2017-06-02T00:27:27.348Z,19.01
2017-06-02T00:27:31.778Z,18.96
2017-06-02T00:27:36.203Z,19.02
2017-06-02T00:27:40.628Z,18.99
2017-06-02T00:27:44.824Z,19.09
2017-06-02T00:27:49.262Z,18.97
2017-06-02T00:27:53.459Z,18.97
2017-06-02T00:27:57.809Z,18.96
2017-06-02T00:28:02.137Z,19.06
2017-06-02T00:28:06.330Z,19.02
2017-06-02T00:28:10.408Z,19.05
2017-06-02T00:28:14.717Z,19.01
2017-06-02T00:28:18.909Z,19.02
2017-06-02T00:28:23.222Z,18.99
2017-06-02T00:28:27.415Z,19.05
2017-06-02T00:28:31.909Z,19.05
2017-06-02T00:28:36.251Z,19.05
2017-06-02T00:28:40.677Z,19.02
2017-06-02T00:28:44.869Z,18.91
2017-06-02T00:28:49.291Z,19.01
2017-06-02T00:28:53.724Z,19.05
2017-06-02T00:28:57.920Z,18.97
2017-06-02T00:29:02.128Z,18.97
2017-06-02T00:29:06.598Z,19.01
2017-06-02T00:29:10.668Z,18.96
2017-06-02T00:29:14.864Z,18.97
2017-06-02T00:29:19.298Z,18.94
2017-06-02T00:29:23.609Z,18.96
2017-06-02T00:29:28.036Z,18.94
2017-06-02T00:29:32.229Z,18.99
2017-06-02T00:29:36.669Z,18.99
2017-06-02T00:29:40.872Z,18.91
2017-06-02T00:29:44.826Z,18.99
2017-06-02T00:29:49.012Z,18.97
2017-06-02T00:29:53.328Z,19.01
2017-06-02T00:29:57.762Z,18.97
2017-06-02T00:30:01.955Z,18.96
2017-06-02T00:30:06.219Z,18.89
2017-06-02T00:30:10.648Z,18.94
2017-06-02T00:30:14.958Z,18.97
2017-06-02T00:30:19.391Z,18.89
2017-06-02T00:30:23.822Z,18.87
2017-06-02T00:30:27.901Z,18.93
2017-06-02T00:30:32.213Z,19.06
2017-06-02T00:30:36.650Z,18.91
2017-06-02T00:30:40.975Z,18.87
2017-06-02T00:30:45.284Z,18.99
2017-06-02T00:30:49.710Z,18.86
2017-06-02T00:30:54.143Z,18.97
2017-06-02T00:30:58.573Z,18.89
2017-06-02T00:31:03.003Z,18.94
2017-06-02T00:31:07.433Z,18.9
2017-06-02T00:31:11.402Z,18.89
2017-06-02T00:31:15.716Z,18.89
2017-06-02T00:31:20.143Z,18.86
2017-06-02T00:31:24.566Z,18.93
2017-06-02T00:31:28.758Z,18.94
2017-06-02T00:31:32.948Z,18.94
2017-06-02T00:31:37.375Z,18.9
2017-06-02T00:31:41.690Z,18.94
2017-06-02T00:31:46.179Z,18.91
2017-06-02T00:31:50.384Z,18.89
2017-06-02T00:31:54.814Z,18.86
2017-06-02T00:31:59.132Z,18.9
2017-06-02T00:32:03.559Z,18.89
2017-06-02T00:32:07.953Z,18.86
2017-06-02T00:32:12.027Z,18.84
2017-06-02T00:32:16.112Z,18.86
2017-06-02T00:32:20.574Z,18.89
2017-06-02T00:32:24.885Z,18.89
2017-06-02T00:32:29.086Z,18.89
2017-06-02T00:32:33.402Z,18.86
2017-06-02T00:32:37.835Z,18.84
2017-06-02T00:32:42.266Z,18.86
2017-06-02T00:32:46.458Z,18.84
2017-06-02T00:32:50.770Z,18.86
2017-06-02T00:32:55.093Z,18.82
2017-06-02T00:32:59.406Z,18.83
2017-06-02T00:33:03.712Z,18.75
2017-06-02T00:33:07.903Z,18.78
2017-06-02T00:33:12.092Z,18.75
2017-06-02T00:33:16.395Z,18.83
2017-06-02T00:33:20.825Z,18.76
2017-06-02T00:33:25.143Z,18.76
2017-06-02T00:33:29.595Z,18.78
2017-06-02T00:33:33.784Z,18.75
2017-06-02T00:33:38.215Z,18.74
2017-06-02T00:33:42.646Z,18.75
2017-06-02T00:33:46.831Z,18.72
2017-06-02T00:33:51.020Z,18.75
2017-06-02T00:33:55.458Z,18.75
2017-06-02T00:33:59.892Z,18.69
2017-06-02T00:34:04.119Z,18.69
2017-06-02T00:34:08.546Z,18.72
2017-06-02T00:34:12.853Z,18.65
2017-06-02T00:34:17.165Z,18.68
2017-06-02T00:34:21.349Z,18.69
2017-06-02T00:34:25.543Z,18.62
2017-06-02T00:34:29.986Z,18.66
2017-06-02T00:34:34.184Z,18.76
2017-06-02T00:34:38.619Z,18.76
2017-06-02T00:34:42.813Z,18.72
2017-06-02T00:34:47.128Z,18.69
2017-06-02T00:34:51.317Z,18.72
2017-06-02T00:34:55.739Z,18.6
2017-06-02T00:35:00.050Z,18.57
2017-06-02T00:35:04.365Z,18.66
2017-06-02T00:35:08.812Z,18.69
2017-06-02T00:35:13.130Z,18.59
2017-06-02T00:35:17.440Z,18.68
2017-06-02T00:35:21.744Z,18.62
2017-06-02T00:35:25.940Z,18.66
2017-06-02T00:35:30.247Z,18.64
2017-06-02T00:35:34.692Z,18.64
2017-06-02T00:35:38.955Z,18.57
2017-06-02T00:35:43.399Z,18.64
2017-06-02T00:35:47.834Z,18.59
2017-06-02T00:35:52.022Z,18.6
2017-06-02T00:35:56.326Z,18.62
2017-06-02T00:36:00.638Z,18.54
2017-06-02T00:36:05.070Z,18.57
2017-06-02T00:36:09.271Z,18.56
2017-06-02T00:36:13.477Z,18.64
2017-06-02T00:36:17.794Z,18.57
2017-06-02T00:36:22.217Z,18.64
2017-06-02T00:36:26.174Z,18.64
2017-06-02T00:36:30.600Z,18.57
2017-06-02T00:36:34.905Z,18.6
2017-06-02T00:36:39.216Z,18.53
2017-06-02T00:36:43.415Z,18.53
2017-06-02T00:36:47.853Z,18.54
2017-06-02T00:36:52.168Z,18.59
2017-06-02T00:36:56.594Z,18.54
2017-06-02T00:37:01.023Z,18.53
2017-06-02T00:37:05.411Z,18.53
2017-06-02T00:37:09.618Z,18.53
2017-06-02T00:37:13.932Z,18.57
2017-06-02T00:37:18.249Z,18.49
2017-06-02T00:37:22.563Z,18.49
2017-06-02T00:37:26.871Z,18.5
2017-06-02T00:37:31.177Z,18.54
2017-06-02T00:37:35.614Z,18.5
2017-06-02T00:37:39.925Z,18.46
2017-06-02T00:37:44.234Z,18.44
2017-06-02T00:37:48.672Z,18.49
2017-06-02T00:37:52.746Z,18.41
2017-06-02T00:37:56.940Z,18.44
2017-06-02T00:38:01.364Z,18.41
2017-06-02T00:38:05.988Z,18.47
2017-06-02T00:38:10.315Z,18.5
2017-06-02T00:38:14.536Z,18.42
2017-06-02T00:38:18.860Z,18.49
2017-06-02T00:38:23.098Z,18.46
2017-06-02T00:38:27.298Z,18.47
2017-06-02T00:38:31.722Z,18.46
2017-06-02T00:38:36.028Z,18.42
2017-06-02T00:38:40.454Z,18.42
2017-06-02T00:38:44.876Z,18.46
2017-06-02T00:38:49.065Z,18.42
2017-06-02T00:38:53.264Z,18.42
2017-06-02T00:38:57.690Z,18.39
2017-06-02T00:39:02.119Z,18.41
2017-06-02T00:39:06.317Z,18.44
2017-06-02T00:39:10.510Z,18.39
2017-06-02T00:39:14.699Z,18.44
2017-06-02T00:39:19.005Z,18.44
2017-06-02T00:39:23.320Z,18.39
2017-06-02T00:39:27.514Z,18.39
2017-06-02T00:39:31.717Z,18.32
2017-06-02T00:39:36.168Z,18.42
2017-06-02T00:39:40.601Z,18.32
2017-06-02T00:39:45.025Z,18.35
2017-06-02T00:39:49.463Z,18.35
2017-06-02T00:39:53.770Z,18.32
2017-06-02T00:39:58.083Z,18.34
2017-06-02T00:40:02.284Z,18.32
2017-06-02T00:40:06.480Z,18.32
2017-06-02T00:40:10.434Z,18.35
2017-06-02T00:40:14.744Z,18.39
2017-06-02T00:40:18.820Z,18.34
2017-06-02T00:40:23.245Z,18.34
2017-06-02T00:40:27.438Z,18.32
2017-06-02T00:40:31.752Z,18.31
2017-06-02T00:40:36.065Z,18.35
2017-06-02T00:40:40.373Z,18.38
2017-06-02T00:40:44.560Z,18.29
2017-06-02T00:40:48.868Z,18.29
2017-06-02T00:40:53.185Z,18.34
2017-06-02T00:40:57.612Z,18.32
2017-06-02T00:41:02.398Z,18.34
2017-06-02T00:41:06.615Z,18.34
2017-06-02T00:41:10.808Z,18.35
2017-06-02T00:41:15.147Z,18.26
2017-06-02T00:41:19.453Z,18.31
2017-06-02T00:41:23.877Z,18.31
2017-06-02T00:41:28.186Z,18.32
2017-06-02T00:41:32.374Z,18.32
2017-06-02T00:41:36.582Z,18.32
2017-06-02T00:41:41.083Z,18.29
2017-06-02T00:41:45.510Z,18.34
2017-06-02T00:41:49.879Z,18.32
2017-06-02T00:41:54.188Z,18.35
2017-06-02T00:41:58.376Z,18.29
2017-06-02T00:42:02.802Z,18.28
2017-06-02T00:42:06.995Z,18.29
2017-06-02T00:42:11.425Z,18.31
2017-06-02T00:42:15.746Z,18.28
2017-06-02T00:42:20.170Z,18.28
2017-06-02T00:42:24.497Z,18.28
2017-06-02T00:42:28.703Z,18.29
2017-06-02T00:42:33.144Z,18.31
2017-06-02T00:42:37.341Z,18.2
2017-06-02T00:42:41.769Z,18.29
2017-06-02T00:42:46.021Z,18.26
2017-06-02T00:42:50.217Z,18.26
2017-06-02T00:42:54.638Z,18.29
2017-06-02T00:42:58.826Z,18.23
2017-06-02T00:43:03.191Z,18.23
2017-06-02T00:43:07.620Z,18.29
2017-06-02T00:43:11.588Z,18.28
2017-06-02T00:43:16.148Z,18.25
2017-06-02T00:43:20.588Z,18.2
2017-06-02T00:43:25.009Z,18.21
2017-06-02T00:43:29.318Z,18.23
2017-06-02T00:43:33.625Z,18.21
2017-06-02T00:43:38.047Z,18.21
2017-06-02T00:43:42.247Z,18.21
2017-06-02T00:43:46.555Z,18.21
2017-06-02T00:43:50.989Z,18.28
2017-06-02T00:43:55.427Z,18.26
2017-06-02T00:43:59.851Z,18.28
2017-06-02T00:44:04.459Z,18.26
2017-06-02T00:44:08.649Z,18.31
2017-06-02T00:44:12.717Z,18.26
2017-06-02T00:44:17.141Z,18.19
2017-06-02T00:44:21.568Z,18.25
2017-06-02T00:44:25.655Z,18.14
2017-06-02T00:44:29.972Z,18.26
2017-06-02T00:44:34.285Z,18.2
2017-06-02T00:44:38.711Z,18.21
2017-06-02T00:44:42.788Z,18.26
2017-06-02T00:44:47.214Z,18.17
2017-06-02T00:44:51.519Z,18.23
2017-06-02T00:44:55.954Z,18.19
2017-06-02T00:45:00.152Z,18.26
2017-06-02T00:45:04.592Z,18.21
2017-06-02T00:45:08.795Z,18.23
2017-06-02T00:45:13.219Z,18.21
2017-06-02T00:45:17.413Z,18.2
2017-06-02T00:45:21.723Z,18.23
2017-06-02T00:45:25.920Z,18.17
2017-06-02T00:45:30.292Z,18.21
2017-06-02T00:45:34.604Z,18.19
2017-06-02T00:45:38.917Z,18.19
2017-06-02T00:45:43.222Z,18.17
2017-06-02T00:45:47.646Z,18.16
2017-06-02T00:45:51.951Z,18.17
2017-06-02T00:45:56.060Z,18.21
2017-06-02T00:46:00.376Z,18.2
2017-06-02T00:46:04.882Z,18.19
2017-06-02T00:46:09.320Z,18.14
2017-06-02T00:46:13.397Z,18.11
2017-06-02T00:46:17.819Z,18.28
2017-06-02T00:46:22.246Z,18.2
2017-06-02T00:46:26.669Z,18.19
2017-06-02T00:46:31.097Z,18.16
2017-06-02T00:46:35.535Z,18.11
2017-06-02T00:46:39.972Z,18.21
2017-06-02T00:46:44.057Z,18.19
2017-06-02T00:46:48.370Z,18.29
2017-06-02T00:46:52.814Z,18.25
2017-06-02T00:46:57.117Z,18.14
2017-06-02T00:47:01.543Z,18.14
2017-06-02T00:47:06.110Z,18.1
2017-06-02T00:47:10.188Z,18.11
2017-06-02T00:47:14.418Z,18.16
2017-06-02T00:47:18.728Z,18.11
2017-06-02T00:47:23.157Z,18.14
2017-06-02T00:47:27.465Z,18.14
2017-06-02T00:47:31.772Z,18.14
2017-06-02T00:47:35.958Z,18.1
2017-06-02T00:47:40.407Z,18.14
2017-06-02T00:47:44.721Z,18.14
2017-06-02T00:47:48.911Z,18.14
2017-06-02T00:47:53.332Z,18.1
2017-06-02T00:47:57.761Z,18.16
2017-06-02T00:48:02.152Z,18.14
2017-06-02T00:48:06.111Z,18.1
2017-06-02T00:48:10.064Z,18.13
2017-06-02T00:48:14.616Z,18.13
2017-06-02T00:48:19.053Z,18.1
2017-06-02T00:48:23.372Z,18.14
2017-06-02T00:48:27.683Z,18.16
2017-06-02T00:48:31.999Z,18.17
2017-06-02T00:48:36.430Z,18.13
2017-06-02T00:48:40.742Z,18.17
2017-06-02T00:48:44.934Z,18.13
2017-06-02T00:48:49.371Z,18.11
2017-06-02T00:48:53.683Z,18.17
2017-06-02T00:48:58.124Z,18.11
2017-06-02T00:49:02.580Z,18.13
2017-06-02T00:49:07.006Z,18.16
2017-06-02T00:49:11.248Z,18.13
2017-06-02T00:49:15.560Z,18.1
2017-06-02T00:49:19.987Z,18.16
2017-06-02T00:49:24.185Z,18.17
2017-06-02T00:49:28.675Z,18.17
2017-06-02T00:49:33.123Z,18.13
2017-06-02T00:49:37.550Z,18.13
2017-06-02T00:49:42.288Z,18.13
2017-06-02T00:49:46.357Z,18.14
2017-06-02T00:49:50.793Z,18.09
2017-06-02T00:49:55.226Z,18.11
2017-06-02T00:49:59.427Z,18.1
2017-06-02T00:50:03.739Z,18.2
2017-06-02T00:50:08.058Z,18.17
2017-06-02T00:50:12.248Z,18.17
2017-06-02T00:50:16.558Z,18.16
2017-06-02T00:50:20.792Z,18.11
2017-06-02T00:50:25.223Z,18.07
2017-06-02T00:50:29.538Z,18.13
2017-06-02T00:50:33.971Z,18.09
2017-06-02T00:50:38.162Z,18.11
2017-06-02T00:50:42.475Z,18.09
2017-06-02T00:50:46.783Z,18.07
2017-06-02T00:50:51.099Z,18.17
2017-06-02T00:50:55.527Z,18.09
2017-06-02T00:50:59.967Z,18.11
2017-06-02T00:51:04.486Z,18.14
2017-06-02T00:51:08.812Z,18.16
2017-06-02T00:51:13.251Z,18.09
2017-06-02T00:51:17.437Z,18.13
2017-06-02T00:51:21.745Z,18.14
2017-06-02T00:51:25.941Z,18.16
2017-06-02T00:51:30.252Z,18.11
2017-06-02T00:51:34.690Z,18.16
2017-06-02T00:51:38.955Z,18.16
2017-06-02T00:51:43.274Z,18.05
2017-06-02T00:51:47.698Z,18.13
2017-06-02T00:51:51.894Z,18.11
2017-06-02T00:51:56.329Z,18.05
2017-06-02T00:52:00.641Z,18.1
2017-06-02T00:52:04.965Z,18.05
2017-06-02T00:52:09.165Z,18.1
2017-06-02T00:52:13.599Z,18.07
2017-06-02T00:52:17.918Z,18.1
2017-06-02T00:52:22.382Z,18.17
2017-06-02T00:52:26.578Z,18.11
2017-06-02T00:52:31.005Z,18.1
2017-06-02T00:52:35.444Z,18.04
2017-06-02T00:52:39.867Z,18.14
2017-06-02T00:52:44.376Z,18.13
2017-06-02T00:52:48.691Z,18.11
2017-06-02T00:52:52.999Z,18.13
2017-06-02T00:52:57.432Z,18.1
2017-06-02T00:53:01.826Z,18.1
2017-06-02T00:53:06.140Z,18.11
2017-06-02T00:53:10.590Z,18.07
2017-06-02T00:53:14.805Z,18.11
2017-06-02T00:53:19.190Z,18.14
2017-06-02T00:53:23.394Z,18.09
2017-06-02T00:53:27.468Z,18.11
2017-06-02T00:53:31.895Z,18.09
2017-06-02T00:53:36.318Z,18.09
2017-06-02T00:53:40.740Z,18.13
2017-06-02T00:53:45.162Z,18.11
2017-06-02T00:53:49.477Z,18.09
2017-06-02T00:53:53.799Z,18.14
2017-06-02T00:53:58.121Z,18.13
2017-06-02T00:54:02.196Z,18.11
2017-06-02T00:54:06.512Z,18.1
2017-06-02T00:54:10.588Z,18.1
2017-06-02T00:54:15.026Z,18.13
2017-06-02T00:54:19.334Z,18.1
2017-06-02T00:54:23.534Z,18.11
2017-06-02T00:54:27.674Z,18.11
2017-06-02T00:54:32.121Z,18.11
2017-06-02T00:54:36.544Z,18.1
2017-06-02T00:54:40.964Z,17.98
2017-06-02T00:54:45.268Z,18.1
2017-06-02T00:54:49.361Z,18.11
2017-06-02T00:54:53.790Z,18.13
2017-06-02T00:54:58.173Z,18.1
2017-06-02T00:55:02.495Z,18.1
2017-06-02T00:55:06.696Z,18.07
2017-06-02T00:55:10.651Z,18.09
2017-06-02T00:55:14.725Z,17.98
2017-06-02T00:55:18.915Z,18.14
2017-06-02T00:55:23.226Z,18.01
2017-06-02T00:55:27.424Z,17.96
2017-06-02T00:55:31.625Z,18.2
2017-06-02T00:55:36.072Z,18.09
2017-06-02T00:55:40.264Z,18.01
2017-06-02T00:55:44.574Z,18.01
2017-06-02T00:55:48.883Z,17.99
2017-06-02T00:55:53.313Z,17.99
2017-06-02T00:55:57.621Z,18.01